You are not logged in, Click here to log in
ICAO: VTBS Country: 泰國曼谷以東25公里北欖府Bang Phli區
Latitude: 13.69 Longitude: 100.75
Total Arrivals: 45 Total Departures: 44
Latest Arrival: OS15 (LOWW-VTBS)KE. CHIH-HAO Latest Departure: J9V02 (VTBS-VVNB)Arthur. Kung
Scenery:
METAR : VTBS 262030Z 26003KT 9999 FEW020 27/24 Q1006 NOSIG

蘇萬那普國際機場(曼谷國際機場) BKK